Harlem, MT (59526)

8:59 AM MST on February 28, 2015 (GMT -0700)
farm | Change Station
CLOSE
Current Station
Personal Weather Station
Location: Hogeland, MT
Elevation: 3104 ft
Nearby Weather Stations

Elev 3104 ft 48.81 °N, 108.54 °W | Updated 13 seconds ago

Overcast
Overcast
6.9 °F
Feels Like -6 °F
N
8.9
Wind Variable Wind from WNW
Gusts 15.0 mph

Today
High -- | Low -- °F
--% Chance of Precip.
Yesterday
High -- | Low -- °F
Precip. -- in
6:59 AM 5:57 PM
Waxing Gibbous, 78% visible
Pressure 30.38 in
Visibility 10.0 miles
Clouds Few 2300 ft
Windchill -6 °F
Dew Point 4 °F
Humidity 81%
Rainfall 0.00 in
Snow Depth Not available.
UV 1 out of 12
Pollen .10 out of 12
Air Quality Not available.
Flu Activity Not available.
METAR KHVR 281553Z AUTO 29009KT 10SM FEW023 M11/M15 A3023 RMK AO2 SLP286 T11061150

More Conditions Fewer Conditions

Pressure 30.38 in
Visibility 10.0 miles
Clouds Few 2300 ft
Windchill -6 °F
Dew Point 4 °F
Humidity 81%
Rainfall 0.00 in
Snow Depth Not available.
UV 1 out of 12
Pollen .10 out of 12
Air Quality Not available.
Flu Activity Not available.
METAR KHVR 281553Z AUTO 29009KT 10SM FEW023 M11/M15 A3023 RMK AO2 SLP286 T11061150

More Conditions Fewer Conditions

10-Day Weather Forecast

Almanac

Astronomy

Feb. 28, 2015 Rise Set
Actual Time
Civil Twilight
Nautical Twilight
Astronomical Twilight
Moon
Length of Visible Light
Length of Day
Tomorrow will be .
, % of the Moon is Illuminated

Today's Extremes

State Highs State Lows

Community

WunderPhotos

Upload Photos

1,801,055 photos uploaded!

WunderBlogs® & News

Nearby

Air Quality

  Air Quality AQ Index Pollutant
Not available.

Snow Depth

Station Depth Elevation

Earthquake Activity

City Distance Mag. Time & Date
Minimum magnitude displayed is 2.5.

Coastal Water Temperatures

Place Temperature

Nearby Weather Stations